Etusivu
METAR-TAF:

METAR-TAF

Lentoasemat :

Angoon, Alaska, Yhdysvallat

Leveyspiiri: 57-30N, Pituuspiiri: 134-35W, korkeus merenpinnasta: 0 m

Tämänhetkinen sää

Tämä raportti tehtiin 44 minuuttia sitten, kello 11.15 UTC
tyyntä
Lämpötila 8°C
Kosteus 100%
Ilmanpaine 1030 hPa
Näkyvyys: 16.1 km
Muutamia pilviä 400 ft:n korkeudessa

METAR: PAGN 181115Z AUTO 00000KT 10SM FEW004 08/08 A3041 RMK AO2

Aika: 03:59 (11:59 UTC)


TAF: puuttuu

Säähavainnot ja -ennusteet yli 4000 lentoasemalta (METAR- ja TAF-raportit).

Käytössä olevat sääasemat on merkitty karttaan keltaisilla ja punaisilla pisteillä.

Aseta hiiri pisteen päälle nähdäksesi sääaseman nimen.

Klikkaa sitten nähdäksesi säähavainnot ja -ennusteet.

Kartan vaihtaminen: klikkaa mustalla rastilla varustettuja vihreitä pisteitä, niin voit zoomata sisään; viivalla varustettua vihreää pistettä, niin voit zoomata ulos tai vihreitä nuolia, niin pääset viereisille kartoille.


METAR-TAF: